createdAt,value
2017-09-30T00:00:00.405Z,9.00
2017-09-30T00:02:27.349Z,8.87
2017-09-30T00:04:54.297Z,10.70
2017-09-30T00:07:21.246Z,8.17
2017-09-30T00:09:48.198Z,9.33
2017-09-30T00:12:15.150Z,10.70
2017-09-30T00:14:42.474Z,9.83
2017-09-30T00:17:09.357Z,10.00
2017-09-30T00:19:36.633Z,8.83
2017-09-30T00:22:03.554Z,9.33
2017-09-30T00:24:30.494Z,9.27
2017-09-30T00:26:57.382Z,10.30
2017-09-30T00:29:24.285Z,9.43
2017-09-30T00:31:51.269Z,10.63
2017-09-30T00:34:18.194Z,10.40
2017-09-30T00:36:45.465Z,10.27
2017-09-30T00:39:12.345Z,10.70
2017-09-30T00:41:39.277Z,10.00
2017-09-30T00:44:06.168Z,11.33
2017-09-30T00:46:33.049Z,10.77
2017-09-30T00:48:59.953Z,9.40
2017-09-30T00:51:26.897Z,9.13
2017-09-30T00:53:53.813Z,9.77
2017-09-30T00:56:20.691Z,9.50
2017-09-30T00:58:47.569Z,9.30
2017-09-30T01:01:14.483Z,9.20
2017-09-30T01:03:41.364Z,9.20
2017-09-30T01:06:08.274Z,9.53
2017-09-30T01:08:35.189Z,10.73
2017-09-30T01:11:02.146Z,11.00
2017-09-30T01:13:29.051Z,9.10
2017-09-30T01:15:55.938Z,10.57
2017-09-30T01:18:22.861Z,11.57
2017-09-30T01:20:49.764Z,11.47
2017-09-30T01:23:17.046Z,11.37
2017-09-30T01:25:43.954Z,10.47
2017-09-30T01:28:11.229Z,11.40
2017-09-30T01:30:38.156Z,11.40
2017-09-30T01:33:05.037Z,10.13
2017-09-30T01:35:31.920Z,11.90
2017-09-30T01:37:58.830Z,9.93
2017-09-30T01:40:25.745Z,10.40
2017-09-30T01:42:53.029Z,11.67
2017-09-30T01:45:19.957Z,11.07
2017-09-30T01:47:46.845Z,12.60
2017-09-30T01:50:13.722Z,10.80
2017-09-30T01:52:41.033Z,9.93
2017-09-30T01:55:07.924Z,11.13
2017-09-30T01:57:35.203Z,9.97
2017-09-30T02:00:02.119Z,11.23
2017-09-30T02:02:29.006Z,10.57
2017-09-30T02:04:55.889Z,11.20
2017-09-30T02:07:22.809Z,11.87
2017-09-30T02:09:49.796Z,11.50
2017-09-30T02:12:16.681Z,10.77
2017-09-30T02:14:43.600Z,12.30
2017-09-30T02:17:10.479Z,13.00
2017-09-30T02:19:37.390Z,12.07
2017-09-30T02:22:04.738Z,10.90
2017-09-30T02:24:31.617Z,11.50
2017-09-30T02:26:58.528Z,11.77
2017-09-30T02:29:25.473Z,11.80
2017-09-30T02:31:52.421Z,11.97
2017-09-30T02:34:19.346Z,11.33
2017-09-30T02:36:46.313Z,11.50
2017-09-30T02:39:13.217Z,11.70
2017-09-30T02:41:40.205Z,10.40
2017-09-30T02:44:07.159Z,11.07
2017-09-30T02:46:34.486Z,11.87
2017-09-30T02:49:01.459Z,11.33
2017-09-30T02:51:28.813Z,11.63
2017-09-30T02:53:55.710Z,11.30
2017-09-30T02:56:22.749Z,12.27
2017-09-30T02:58:49.657Z,11.70
2017-09-30T03:01:16.595Z,10.90
2017-09-30T03:03:43.517Z,11.47
2017-09-30T03:06:10.493Z,12.07
2017-09-30T03:08:37.381Z,11.67
2017-09-30T03:11:04.293Z,10.87
2017-09-30T03:13:31.637Z,11.80
2017-09-30T03:15:58.582Z,10.13
2017-09-30T03:18:25.533Z,11.10
2017-09-30T03:20:52.418Z,11.20
2017-09-30T03:23:19.321Z,12.83
2017-09-30T03:25:46.257Z,11.10
2017-09-30T03:28:13.140Z,11.40
2017-09-30T03:30:40.030Z,11.93
2017-09-30T03:33:06.949Z,12.80
2017-09-30T03:35:33.926Z,10.93
2017-09-30T03:38:00.804Z,12.70
2017-09-30T03:40:28.167Z,11.30
2017-09-30T03:42:55.457Z,12.73
2017-09-30T03:45:22.349Z,12.77
2017-09-30T03:47:49.276Z,11.57
2017-09-30T03:50:16.241Z,12.47
2017-09-30T03:52:43.191Z,12.83
2017-09-30T03:55:10.140Z,11.33
2017-09-30T03:57:37.048Z,11.97
2017-09-30T04:00:04.030Z,11.90
2017-09-30T04:02:30.937Z,11.80
2017-09-30T04:04:57.921Z,12.80
2017-09-30T04:07:24.865Z,12.60
2017-09-30T04:09:51.771Z,13.87
2017-09-30T04:12:18.653Z,14.60
2017-09-30T04:14:45.588Z,13.53
2017-09-30T04:17:12.472Z,15.00
2017-09-30T04:19:39.811Z,11.63
2017-09-30T04:22:06.742Z,13.10
2017-09-30T04:24:33.710Z,12.63
2017-09-30T04:27:00.985Z,13.37
2017-09-30T04:29:27.909Z,12.87
2017-09-30T04:31:55.252Z,12.47
2017-09-30T04:34:22.133Z,13.00
2017-09-30T04:36:49.054Z,12.63
2017-09-30T04:39:16.405Z,12.90
2017-09-30T04:41:43.349Z,13.70
2017-09-30T04:44:10.293Z,13.40
2017-09-30T04:46:37.181Z,14.10
2017-09-30T04:49:04.189Z,12.63
2017-09-30T04:51:31.085Z,11.97
2017-09-30T04:53:57.969Z,13.37
2017-09-30T04:56:24.892Z,12.20
2017-09-30T04:58:51.813Z,12.20
2017-09-30T05:01:18.746Z,13.70
2017-09-30T05:03:45.757Z,11.27
2017-09-30T05:06:12.705Z,12.57
2017-09-30T05:08:39.658Z,12.93
2017-09-30T05:11:06.577Z,12.00
2017-09-30T05:13:33.549Z,12.70
2017-09-30T05:16:00.442Z,13.00
2017-09-30T05:18:27.439Z,12.47
2017-09-30T05:20:54.384Z,12.47
2017-09-30T05:23:21.275Z,11.30
2017-09-30T05:25:48.201Z,12.93
2017-09-30T05:28:15.486Z,13.47
2017-09-30T05:30:42.374Z,12.40
2017-09-30T05:33:09.329Z,12.27
2017-09-30T05:35:36.214Z,12.77
2017-09-30T05:38:03.122Z,14.40
2017-09-30T05:40:30.060Z,12.20
2017-09-30T05:42:56.940Z,11.87
2017-09-30T05:45:23.855Z,13.17
2017-09-30T05:47:50.880Z,11.43
2017-09-30T05:50:17.828Z,11.77
2017-09-30T05:52:45.107Z,10.70
2017-09-30T05:55:12.113Z,11.57
2017-09-30T05:57:39.061Z,12.10
2017-09-30T06:00:06.014Z,12.00
2017-09-30T06:02:32.962Z,13.17
2017-09-30T06:04:59.949Z,12.30
2017-09-30T06:07:26.849Z,11.93
2017-09-30T06:09:53.796Z,12.00
2017-09-30T06:12:20.745Z,12.23
2017-09-30T06:14:47.638Z,12.07
2017-09-30T06:17:14.634Z,11.60
2017-09-30T06:19:41.518Z,11.83
2017-09-30T06:22:08.404Z,11.70
2017-09-30T06:24:35.377Z,12.63
2017-09-30T06:27:02.336Z,13.37
2017-09-30T06:29:29.609Z,13.60
2017-09-30T06:31:56.537Z,13.13
2017-09-30T06:34:23.822Z,12.43
2017-09-30T06:36:50.705Z,13.17
2017-09-30T06:39:17.669Z,13.37
2017-09-30T06:41:44.567Z,11.40
2017-09-30T06:44:11.450Z,12.50
2017-09-30T06:46:38.378Z,12.93
2017-09-30T06:49:05.258Z,12.93
2017-09-30T06:51:32.537Z,13.80
2017-09-30T06:53:59.553Z,15.80
2017-09-30T06:56:26.437Z,15.40
2017-09-30T06:58:53.343Z,15.03
2017-09-30T07:01:20.701Z,15.13
2017-09-30T07:03:47.649Z,13.07
2017-09-30T07:06:14.591Z,15.50
2017-09-30T07:08:41.522Z,14.43
2017-09-30T07:11:08.409Z,16.03
2017-09-30T07:13:35.692Z,14.60
2017-09-30T07:16:02.622Z,14.10
2017-09-30T07:18:29.507Z,13.80
2017-09-30T07:20:56.479Z,15.10
2017-09-30T07:23:23.422Z,15.10
2017-09-30T07:25:50.301Z,16.30
2017-09-30T07:28:17.189Z,17.60
2017-09-30T07:30:44.136Z,17.33
2017-09-30T07:33:11.025Z,20.83
2017-09-30T07:35:38.358Z,22.53
2017-09-30T07:38:05.290Z,21.10
2017-09-30T07:40:32.185Z,22.33
2017-09-30T07:42:59.075Z,25.33
2017-09-30T07:45:25.989Z,24.40
2017-09-30T07:47:52.873Z,24.50
2017-09-30T07:50:19.762Z,26.13
2017-09-30T07:52:47.075Z,22.70
2017-09-30T07:55:13.962Z,24.80
2017-09-30T07:57:40.910Z,22.70
2017-09-30T08:00:07.833Z,23.27
2017-09-30T08:02:35.113Z,20.77
2017-09-30T08:05:02.026Z,25.53
2017-09-30T08:07:28.967Z,23.30
2017-09-30T08:09:55.853Z,23.83
2017-09-30T08:12:22.810Z,27.03
2017-09-30T08:14:49.746Z,25.80
2017-09-30T08:17:16.629Z,25.33
2017-09-30T08:19:43.509Z,25.00
2017-09-30T08:22:10.883Z,26.90
2017-09-30T08:24:37.779Z,26.13
2017-09-30T08:27:04.665Z,31.07
2017-09-30T08:29:31.997Z,24.87
2017-09-30T08:31:58.882Z,28.13
2017-09-30T08:34:25.783Z,26.23
2017-09-30T08:36:52.735Z,29.17
2017-09-30T08:39:19.618Z,29.73
2017-09-30T08:41:46.500Z,27.90
2017-09-30T08:44:13.483Z,27.73
2017-09-30T08:46:40.427Z,30.30
2017-09-30T08:49:07.377Z,28.27
2017-09-30T08:51:34.311Z,28.77
2017-09-30T08:54:01.202Z,26.70
2017-09-30T08:56:28.089Z,27.80
2017-09-30T08:58:55.049Z,31.43
2017-09-30T09:01:21.929Z,29.23
2017-09-30T09:03:48.813Z,27.10
2017-09-30T09:06:15.939Z,28.17
2017-09-30T09:08:42.881Z,29.57
2017-09-30T09:11:09.788Z,29.27
2017-09-30T09:13:36.734Z,27.90
2017-09-30T09:16:03.705Z,29.33
2017-09-30T09:18:31.045Z,22.97
2017-09-30T09:20:58.490Z,25.20
2017-09-30T09:23:25.377Z,27.00
2017-09-30T09:25:52.279Z,26.27
2017-09-30T09:28:19.218Z,23.60
2017-09-30T09:30:46.218Z,28.40
2017-09-30T09:33:13.167Z,27.77
2017-09-30T09:35:40.173Z,25.30
2017-09-30T09:38:07.116Z,25.80
2017-09-30T09:40:33.997Z,26.00
2017-09-30T09:43:01.010Z,26.73
2017-09-30T09:45:27.929Z,25.40
2017-09-30T09:47:54.902Z,29.13
2017-09-30T09:50:21.816Z,26.50
2017-09-30T09:52:48.714Z,28.53
2017-09-30T09:55:16.007Z,27.60
2017-09-30T09:57:42.936Z,27.47
2017-09-30T10:00:09.821Z,29.37
2017-09-30T10:02:36.704Z,27.33
2017-09-30T10:05:04.017Z,29.47
2017-09-30T10:07:30.909Z,27.70
2017-09-30T10:09:58.189Z,27.50
2017-09-30T10:12:25.186Z,25.97
2017-09-30T10:14:52.077Z,27.53
2017-09-30T10:17:18.973Z,24.80
2017-09-30T10:19:45.921Z,26.90
2017-09-30T10:22:12.875Z,27.47
2017-09-30T10:24:40.162Z,28.47
2017-09-30T10:27:07.084Z,28.00
2017-09-30T10:29:34.369Z,27.40
2017-09-30T10:32:01.265Z,27.90
2017-09-30T10:34:28.213Z,27.43
2017-09-30T10:36:55.168Z,25.40
2017-09-30T10:39:22.054Z,25.23
2017-09-30T10:41:49.057Z,25.17
2017-09-30T10:44:16.025Z,24.60
2017-09-30T10:46:42.925Z,22.37
2017-09-30T10:49:09.902Z,26.20
2017-09-30T10:51:36.792Z,25.70
2017-09-30T10:54:03.733Z,24.63
2017-09-30T10:56:30.737Z,23.70
2017-09-30T10:58:57.685Z,22.97
2017-09-30T11:01:24.573Z,23.87
2017-09-30T11:03:51.502Z,22.67
2017-09-30T11:06:18.463Z,25.47
2017-09-30T11:08:45.346Z,24.40
2017-09-30T11:11:12.413Z,21.60
2017-09-30T11:13:39.299Z,21.87
2017-09-30T11:16:06.191Z,25.23
2017-09-30T11:18:33.154Z,25.73
2017-09-30T11:21:00.049Z,26.90
2017-09-30T11:23:26.938Z,24.40
2017-09-30T11:25:53.860Z,23.63
2017-09-30T11:28:20.749Z,23.23
2017-09-30T11:30:48.040Z,25.13
2017-09-30T11:33:15.033Z,21.30
2017-09-30T11:35:42.024Z,21.43
2017-09-30T11:38:08.921Z,22.23
2017-09-30T11:40:35.836Z,22.10
2017-09-30T11:43:02.726Z,23.13
2017-09-30T11:45:30.173Z,24.63
2017-09-30T11:47:57.121Z,24.67
2017-09-30T11:50:24.065Z,21.90
2017-09-30T11:52:50.968Z,22.30
2017-09-30T11:55:17.889Z,22.90
2017-09-30T11:57:44.812Z,22.60
2017-09-30T12:00:11.696Z,22.93
2017-09-30T12:02:38.635Z,23.80
2017-09-30T12:05:05.533Z,25.83
2017-09-30T12:07:32.432Z,24.23
2017-09-30T12:09:59.351Z,24.57
2017-09-30T12:12:26.693Z,24.47
2017-09-30T12:14:53.641Z,23.77
2017-09-30T12:17:20.641Z,26.07
2017-09-30T12:19:47.529Z,24.60
2017-09-30T12:22:14.422Z,24.27
2017-09-30T12:24:41.353Z,24.30
2017-09-30T12:27:08.232Z,24.00
2017-09-30T12:29:35.214Z,23.90
2017-09-30T12:32:02.143Z,24.70
2017-09-30T12:34:29.032Z,21.80
2017-09-30T12:36:56.371Z,21.37
2017-09-30T12:39:23.696Z,20.00
2017-09-30T12:41:50.581Z,21.20
2017-09-30T12:44:17.916Z,19.17
2017-09-30T12:46:44.966Z,19.33
2017-09-30T12:49:11.861Z,19.00
2017-09-30T12:51:38.861Z,17.67
2017-09-30T12:54:05.805Z,17.93
2017-09-30T12:56:32.692Z,15.47
2017-09-30T12:58:59.602Z,18.17
2017-09-30T13:01:26.538Z,18.20
2017-09-30T13:03:53.493Z,17.80
2017-09-30T13:06:20.381Z,16.10
2017-09-30T13:08:47.429Z,15.63
2017-09-30T13:11:14.329Z,15.93
2017-09-30T13:13:41.221Z,16.43
2017-09-30T13:16:08.147Z,15.77
2017-09-30T13:18:35.061Z,15.03
2017-09-30T13:21:01.955Z,16.27
2017-09-30T13:23:28.872Z,15.20
2017-09-30T13:25:56.254Z,15.30
2017-09-30T13:28:23.133Z,15.40
2017-09-30T13:30:50.102Z,15.23
2017-09-30T13:33:17.050Z,16.93
2017-09-30T13:35:43.940Z,15.73
2017-09-30T13:38:10.944Z,14.93
2017-09-30T13:40:37.890Z,15.57
2017-09-30T13:43:04.776Z,10.23
2017-09-30T13:45:31.689Z,3.93
2017-09-30T13:47:58.974Z,2.40
2017-09-30T13:50:25.858Z,2.77
2017-09-30T13:52:52.833Z,2.57
2017-09-30T13:55:19.718Z,2.13
2017-09-30T13:57:46.661Z,2.50
2017-09-30T14:00:13.661Z,2.30
2017-09-30T14:02:40.614Z,3.63
2017-09-30T14:05:07.491Z,3.33
2017-09-30T14:07:34.497Z,2.20
2017-09-30T14:10:01.450Z,2.50
2017-09-30T14:12:28.403Z,2.30
2017-09-30T14:14:55.778Z,4.20
2017-09-30T14:17:23.054Z,2.60
2017-09-30T14:19:49.942Z,3.90
2017-09-30T14:22:16.897Z,2.43
2017-09-30T14:24:43.812Z,2.37
2017-09-30T14:27:10.693Z,2.83
2017-09-30T14:29:37.578Z,4.73
2017-09-30T14:32:04.588Z,3.07
2017-09-30T14:34:31.469Z,3.33
2017-09-30T14:36:58.377Z,2.67
2017-09-30T14:39:25.321Z,2.60
2017-09-30T14:41:52.286Z,2.40
2017-09-30T14:44:19.629Z,3.20
2017-09-30T14:46:46.573Z,2.63
2017-09-30T14:49:13.513Z,3.07
2017-09-30T14:51:40.397Z,3.30
2017-09-30T14:54:07.404Z,3.80
2017-09-30T14:56:34.286Z,2.83
2017-09-30T14:59:01.168Z,3.80
2017-09-30T15:01:28.146Z,2.80
2017-09-30T15:03:55.102Z,3.03
2017-09-30T15:06:22.373Z,2.70
2017-09-30T15:08:49.686Z,2.50
2017-09-30T15:11:16.591Z,2.27
2017-09-30T15:13:43.470Z,2.63
2017-09-30T15:16:10.441Z,2.37
2017-09-30T15:18:37.801Z,2.90
2017-09-30T15:21:05.081Z,2.90
2017-09-30T15:23:32.115Z,2.30
2017-09-30T15:25:59.475Z,4.90
2017-09-30T15:28:26.810Z,3.50
2017-09-30T15:30:53.753Z,4.13
2017-09-30T15:33:20.701Z,3.37
2017-09-30T15:35:47.583Z,3.03
2017-09-30T15:38:14.498Z,3.00
2017-09-30T15:40:41.406Z,2.33
2017-09-30T15:43:08.380Z,2.83
2017-09-30T15:45:35.300Z,2.57
2017-09-30T15:48:02.181Z,2.10
2017-09-30T15:50:29.076Z,2.50
2017-09-30T15:52:56.006Z,2.70
2017-09-30T15:55:22.910Z,2.70
2017-09-30T15:57:49.883Z,2.53
2017-09-30T16:00:17.189Z,2.33
2017-09-30T16:02:44.069Z,2.90
2017-09-30T16:05:11.405Z,2.63
2017-09-30T16:07:38.294Z,2.47
2017-09-30T16:10:05.173Z,2.47
2017-09-30T16:12:32.086Z,2.40
2017-09-30T16:14:59.008Z,2.97
2017-09-30T16:17:25.889Z,2.70
2017-09-30T16:19:52.805Z,2.30
2017-09-30T16:22:20.094Z,3.20
2017-09-30T16:24:46.974Z,3.07
2017-09-30T16:27:13.941Z,2.97
2017-09-30T16:29:40.825Z,3.20
2017-09-30T16:32:07.705Z,2.53
2017-09-30T16:34:34.622Z,2.70
2017-09-30T16:37:01.517Z,5.10
2017-09-30T16:39:28.469Z,2.83
2017-09-30T16:41:55.401Z,3.20
2017-09-30T16:44:22.285Z,2.50
2017-09-30T16:46:49.200Z,3.10
2017-09-30T16:49:16.157Z,1.90
2017-09-30T16:51:43.089Z,3.00
2017-09-30T16:54:09.974Z,2.87
2017-09-30T16:56:36.885Z,2.67
2017-09-30T16:59:03.783Z,2.70
2017-09-30T17:01:30.665Z,2.63
2017-09-30T17:03:57.586Z,2.80
2017-09-30T17:06:24.473Z,2.70
2017-09-30T17:08:51.364Z,2.63
2017-09-30T17:11:18.282Z,3.07
2017-09-30T17:13:45.609Z,2.73
2017-09-30T17:16:12.557Z,3.37
2017-09-30T17:18:39.502Z,3.03
2017-09-30T17:21:06.905Z,2.20
2017-09-30T17:23:33.905Z,2.50
2017-09-30T17:26:00.853Z,4.80
2017-09-30T17:28:27.756Z,2.90
2017-09-30T17:30:54.621Z,2.37
2017-09-30T17:33:21.537Z,2.30
2017-09-30T17:35:48.412Z,2.17
2017-09-30T17:38:15.382Z,2.60
2017-09-30T17:40:42.331Z,2.57
2017-09-30T17:43:09.209Z,2.63
2017-09-30T17:45:36.094Z,2.37
2017-09-30T17:48:03.062Z,3.13
2017-09-30T17:50:29.945Z,2.57
2017-09-30T17:52:56.829Z,3.47
2017-09-30T17:55:23.802Z,3.17
2017-09-30T17:57:50.684Z,2.83
2017-09-30T18:00:17.636Z,2.80
2017-09-30T18:02:44.549Z,2.60
2017-09-30T18:05:11.825Z,2.77
2017-09-30T18:07:38.785Z,2.80
2017-09-30T18:10:05.787Z,3.63
2017-09-30T18:12:32.741Z,3.80
2017-09-30T18:14:59.727Z,2.40
2017-09-30T18:17:26.673Z,3.10
2017-09-30T18:19:53.573Z,3.10
2017-09-30T18:22:20.454Z,2.93
2017-09-30T18:24:47.408Z,4.17
2017-09-30T18:27:14.306Z,3.20
2017-09-30T18:29:41.203Z,3.20
2017-09-30T18:32:08.113Z,3.10
2017-09-30T18:34:35.458Z,3.23
2017-09-30T18:37:02.357Z,2.90
2017-09-30T18:39:29.302Z,3.33
2017-09-30T18:41:56.180Z,3.80
2017-09-30T18:44:23.149Z,5.40
2017-09-30T18:46:50.113Z,3.00
2017-09-30T18:49:17.724Z,3.80
2017-09-30T18:51:44.702Z,2.33
2017-09-30T18:54:11.636Z,2.83
2017-09-30T18:56:38.525Z,3.90
2017-09-30T18:59:05.402Z,4.60
2017-09-30T19:01:32.377Z,3.87
2017-09-30T19:03:59.330Z,3.90
2017-09-30T19:06:26.221Z,3.13
2017-09-30T19:08:53.144Z,3.73
2017-09-30T19:11:20.422Z,4.57
2017-09-30T19:13:47.330Z,2.90
2017-09-30T19:16:14.637Z,3.77
2017-09-30T19:18:41.617Z,3.63
2017-09-30T19:21:08.506Z,3.40
2017-09-30T19:23:35.418Z,3.90
2017-09-30T19:26:02.293Z,4.10
2017-09-30T19:28:29.306Z,4.43
2017-09-30T19:30:56.185Z,6.10
2017-09-30T19:33:23.066Z,4.03
2017-09-30T19:35:50.041Z,4.23
2017-09-30T19:38:16.921Z,4.30
2017-09-30T19:40:43.833Z,3.43
2017-09-30T19:43:10.754Z,3.37
2017-09-30T19:45:37.649Z,3.77
2017-09-30T19:48:04.945Z,8.30
2017-09-30T19:50:31.876Z,3.70
2017-09-30T19:52:58.773Z,3.03
2017-09-30T19:55:25.722Z,3.50
2017-09-30T19:57:52.664Z,4.73
2017-09-30T20:00:19.609Z,3.87
2017-09-30T20:02:46.638Z,3.70
2017-09-30T20:05:13.558Z,3.40
2017-09-30T20:07:40.449Z,3.70
2017-09-30T20:10:07.400Z,3.90
2017-09-30T20:12:34.337Z,4.50
2017-09-30T20:15:01.234Z,4.43
2017-09-30T20:17:28.135Z,4.60
2017-09-30T20:19:55.081Z,4.80
2017-09-30T20:22:21.967Z,3.87
2017-09-30T20:24:48.845Z,4.87
2017-09-30T20:27:15.765Z,4.70
2017-09-30T20:29:42.652Z,5.20
2017-09-30T20:32:09.651Z,5.03
2017-09-30T20:34:36.568Z,4.97
2017-09-30T20:37:03.909Z,5.53
2017-09-30T20:39:30.869Z,5.73
2017-09-30T20:41:58.173Z,6.60
2017-09-30T20:44:25.154Z,6.97
2017-09-30T20:46:52.032Z,6.57
2017-09-30T20:49:18.952Z,5.73
2017-09-30T20:51:45.852Z,6.20
2017-09-30T20:54:12.734Z,7.20
2017-09-30T20:56:39.690Z,7.83
2017-09-30T20:59:06.578Z,6.90
2017-09-30T21:01:33.588Z,6.83
2017-09-30T21:04:00.929Z,6.60
2017-09-30T21:06:27.881Z,8.70
2017-09-30T21:08:55.208Z,7.03
2017-09-30T21:11:22.117Z,7.40
2017-09-30T21:13:49.002Z,8.90
2017-09-30T21:16:15.944Z,7.37
2017-09-30T21:18:42.889Z,7.13
2017-09-30T21:21:09.838Z,7.20
2017-09-30T21:23:36.729Z,8.50
2017-09-30T21:26:03.730Z,8.47
2017-09-30T21:28:30.610Z,8.60
2017-09-30T21:30:57.493Z,8.10
2017-09-30T21:33:24.412Z,8.80
2017-09-30T21:35:51.288Z,7.80
2017-09-30T21:38:18.256Z,9.17
2017-09-30T21:40:45.202Z,9.20
2017-09-30T21:43:12.155Z,10.93
2017-09-30T21:45:39.057Z,8.63
2017-09-30T21:48:05.975Z,10.60
2017-09-30T21:50:32.850Z,8.60
2017-09-30T21:52:59.733Z,9.40
2017-09-30T21:55:26.652Z,8.20
2017-09-30T21:57:53.622Z,9.23
2017-09-30T22:00:20.505Z,9.90
2017-09-30T22:02:47.424Z,8.27
2017-09-30T22:05:14.362Z,9.53
2017-09-30T22:07:41.302Z,9.40
2017-09-30T22:10:08.232Z,9.13
2017-09-30T22:12:35.202Z,9.63
2017-09-30T22:15:02.081Z,11.87
2017-09-30T22:17:28.996Z,11.20
2017-09-30T22:19:55.934Z,11.23
2017-09-30T22:22:22.828Z,10.97
2017-09-30T22:24:49.750Z,10.57
2017-09-30T22:27:17.030Z,9.70
2017-09-30T22:29:43.914Z,9.90
2017-09-30T22:32:10.828Z,9.70
2017-09-30T22:34:37.705Z,11.47
2017-09-30T22:37:05.893Z,10.23
2017-09-30T22:39:32.825Z,9.60
2017-09-30T22:41:59.833Z,10.47
2017-09-30T22:44:26.741Z,9.10
2017-09-30T22:46:54.220Z,10.67
2017-09-30T22:49:21.142Z,9.47
2017-09-30T22:51:48.022Z,9.03
2017-09-30T22:54:15.076Z,10.13
2017-09-30T22:56:41.975Z,8.60
2017-09-30T22:59:08.862Z,8.13
2017-09-30T23:01:35.782Z,10.03
2017-09-30T23:04:03.123Z,7.93
2017-09-30T23:06:30.070Z,9.53
2017-09-30T23:08:57.117Z,7.80
2017-09-30T23:11:23.997Z,10.03
2017-09-30T23:13:50.877Z,11.40
2017-09-30T23:16:17.852Z,8.30
2017-09-30T23:18:44.737Z,9.13
2017-09-30T23:21:11.621Z,9.70
2017-09-30T23:23:38.593Z,8.90
2017-09-30T23:26:05.540Z,8.83
2017-09-30T23:28:32.420Z,9.93
2017-09-30T23:30:59.429Z,8.97
2017-09-30T23:33:26.318Z,10.33
2017-09-30T23:35:53.220Z,9.17
2017-09-30T23:38:20.144Z,10.20
2017-09-30T23:40:47.029Z,9.97
2017-09-30T23:43:14.376Z,9.03
2017-09-30T23:45:41.296Z,8.30
2017-09-30T23:48:08.186Z,10.20
2017-09-30T23:50:35.466Z,9.93
2017-09-30T23:53:02.388Z,9.03
2017-09-30T23:55:29.717Z,9.07
2017-09-30T23:57:56.666Z,9.20
